Time;durP1;ratioP1;P1;durP2;ratioP2;P2;SDS_P1;SDS_P2;PMS_P1;PMS_P2;Temp;Humidity;BMP_temperature;BMP_pressure;BME280_temperature;BME280_humidity;BME280_pressure;Samples;Min_cycle;Max_cycle;Signal;HPM_P1;HPM_P2
2021/12/03 00:01:26;;;;;;;2.97;2.67;;;3.50;96.30;;;;;;5036667;28;20048;-77
2021/12/03 00:03:53;;;;;;;4.25;3.05;;;3.50;96.20;;;;;;5040658;28;20041;-77
2021/12/03 00:06:21;;;;;;;3.58;3.00;;;3.50;96.20;;;;;;5038720;28;20106;-77
2021/12/03 00:08:49;;;;;;;3.17;2.78;;;3.50;96.10;;;;;;5040465;28;20327;-77
2021/12/03 00:11:16;;;;;;;3.08;2.80;;;3.50;96.10;;;;;;5036814;28;20061;-77
2021/12/03 00:13:43;;;;;;;3.45;3.15;;;3.50;96.10;;;;;;5041432;28;20505;-78
2021/12/03 00:16:11;;;;;;;3.08;2.75;;;3.50;96.10;;;;;;5034683;28;20049;-78
2021/12/03 00:18:37;;;;;;;3.55;3.22;;;3.50;96.10;;;;;;5036359;28;20091;-77
2021/12/03 00:21:07;;;;;;;3.60;3.30;;;3.50;96.10;;;;;;5037405;28;20053;-77
2021/12/03 00:23:36;;;;;;;3.25;2.97;;;3.50;96.10;;;;;;5038302;28;20132;-77
2021/12/03 00:26:04;;;;;;;3.53;3.25;;;3.50;96.10;;;;;;5032321;28;20049;-77
2021/12/03 00:28:31;;;;;;;3.72;3.42;;;3.50;96.10;;;;;;5033886;28;20053;-78
2021/12/03 00:30:59;;;;;;;3.67;3.00;;;3.50;96.10;;;;;;5032393;28;21022;-77
2021/12/03 00:33:29;;;;;;;3.38;3.05;;;3.50;96.10;;;;;;5035738;28;20053;-77
2021/12/03 00:35:55;;;;;;;4.18;3.40;;;3.40;96.10;;;;;;5034565;28;20057;-77
2021/12/03 00:38:23;;;;;;;3.88;3.40;;;3.50;96.20;;;;;;5033749;28;20055;-78
2021/12/03 00:40:51;;;;;;;3.30;3.10;;;3.40;96.10;;;;;;5033028;28;20159;-77
2021/12/03 00:43:18;;;;;;;3.80;3.50;;;3.40;96.10;;;;;;5035094;28;20045;-77
2021/12/03 00:45:46;;;;;;;3.15;2.92;;;3.40;96.10;;;;;;5036197;28;20546;-77
2021/12/03 00:48:13;;;;;;;4.15;3.55;;;3.50;96.10;;;;;;5035155;28;20734;-78
2021/12/03 00:50:40;;;;;;;3.40;3.10;;;3.40;96.10;;;;;;5033245;28;20061;-77
2021/12/03 00:53:07;;;;;;;3.80;3.45;;;3.40;96.10;;;;;;5033212;28;20087;-76
2021/12/03 00:55:34;;;;;;;3.72;3.42;;;3.40;96.10;;;;;;5032591;28;20120;-77
2021/12/03 00:58:02;;;;;;;4.28;3.88;;;3.40;96.10;;;;;;5033076;28;20061;-77
2021/12/03 01:00:32;;;;;;;3.75;3.45;;;3.40;96.10;;;;;;5035706;28;20797;-76
2021/12/03 01:03:00;;;;;;;3.50;3.20;;;3.40;96.10;;;;;;5033484;28;20048;-75
2021/12/03 01:05:27;;;;;;;4.00;3.60;;;3.40;96.10;;;;;;5037208;28;20052;-77
2021/12/03 01:07:54;;;;;;;3.58;3.28;;;3.40;96.10;;;;;;5036744;28;20602;-77
2021/12/03 01:10:21;;;;;;;3.75;3.40;;;3.40;96.10;;;;;;5032384;28;20045;-77
2021/12/03 01:12:49;;;;;;;4.28;3.88;;;3.40;96.10;;;;;;5031266;28;20116;-78
2021/12/03 01:15:21;;;;;;;4.25;3.65;;;3.40;96.10;;;;;;5030952;28;20139;-77
2021/12/03 01:17:48;;;;;;;4.65;3.70;;;3.40;96.10;;;;;;5034024;28;20048;-78
2021/12/03 01:20:16;;;;;;;4.40;4.00;;;3.40;96.20;;;;;;5036239;28;20060;-77
2021/12/03 01:22:44;;;;;;;4.40;4.00;;;3.40;96.20;;;;;;5039082;28;20048;-77
2021/12/03 01:25:13;;;;;;;3.70;3.40;;;3.40;96.20;;;;;;5035145;28;20060;-77
2021/12/03 01:27:40;;;;;;;4.45;4.00;;;3.40;96.20;;;;;;5037635;28;20071;-77
2021/12/03 01:30:11;;;;;;;4.07;3.72;;;3.40;96.10;;;;;;5036922;28;21237;-77
2021/12/03 01:32:40;;;;;;;4.93;4.43;;;3.40;96.10;;;;;;5032294;28;20045;-77
2021/12/03 01:35:09;;;;;;;4.68;4.28;;;3.30;96.00;;;;;;5035060;28;20111;-78
2021/12/03 01:37:37;;;;;;;5.22;4.40;;;3.30;96.00;;;;;;5032553;28;20532;-77
2021/12/03 01:40:06;;;;;;;4.78;4.38;;;3.30;96.00;;;;;;5032265;28;20634;-77
2021/12/03 01:42:32;;;;;;;5.13;4.63;;;3.30;95.90;;;;;;5028923;28;20053;-76
2021/12/03 01:44:59;;;;;;;5.38;4.68;;;3.30;95.80;;;;;;5034054;28;20049;-78
2021/12/03 01:47:26;;;;;;;5.65;5.05;;;3.30;95.80;;;;;;5031310;28;20053;-78
2021/12/03 01:49:54;;;;;;;4.45;4.05;;;3.30;95.80;;;;;;5033076;28;20818;-77
2021/12/03 01:52:21;;;;;;;6.03;4.80;;;3.30;95.80;;;;;;5033793;28;20048;-77
2021/12/03 01:54:47;;;;;;;5.25;4.75;;;3.30;95.80;;;;;;5030153;28;20067;-78
2021/12/03 01:57:14;;;;;;;4.95;4.40;;;3.20;95.80;;;;;;5033975;28;20057;-78
2021/12/03 01:59:41;;;;;;;5.10;4.60;;;3.20;96.20;;;;;;5033461;28;20056;-77
2021/12/03 02:02:08;;;;;;;5.57;5.05;;;3.20;95.90;;;;;;5033728;28;20048;-78
2021/12/03 02:04:35;;;;;;;6.95;5.30;;;3.20;95.90;;;;;;5035030;28;20048;-78
2021/12/03 02:07:04;;;;;;;5.95;5.20;;;3.20;96.00;;;;;;5033761;28;20861;-78
2021/12/03 02:09:31;;;;;;;5.68;4.65;;;3.20;96.00;;;;;;5032808;28;20049;-78
2021/12/03 02:11:57;;;;;;;6.53;5.72;;;3.20;96.00;;;;;;5034253;28;20053;-77
2021/12/03 02:14:24;;;;;;;7.15;5.63;;;3.20;96.00;;;;;;5032852;28;20049;-78
2021/12/03 02:16:51;;;;;;;5.82;5.20;;;3.10;96.00;;;;;;5031801;28;20057;-77
2021/12/03 02:19:18;;;;;;;6.97;5.88;;;3.10;96.00;;;;;;5037161;28;20045;-77
2021/12/03 02:21:47;;;;;;;6.10;5.50;;;3.10;96.00;;;;;;5039406;28;20135;-78
2021/12/03 02:24:14;;;;;;;6.07;5.35;;;3.10;96.00;;;;;;5040186;28;20049;-78
2021/12/03 02:26:41;;;;;;;7.65;5.65;;;3.10;96.00;;;;;;5036984;28;20115;-78
2021/12/03 02:29:08;;;;;;;6.68;5.85;;;3.10;96.10;;;;;;5039607;28;20049;-78
2021/12/03 02:31:35;;;;;;;7.50;5.93;;;3.10;96.10;;;;;;5030720;28;20053;-76
2021/12/03 02:34:02;;;;;;;7.38;5.78;;;3.00;96.10;;;;;;5033785;28;20059;-77
2021/12/03 02:36:29;;;;;;;7.03;6.13;;;3.00;96.10;;;;;;5031341;28;20057;-77
2021/12/03 02:38:57;;;;;;;8.38;6.68;;;3.00;96.20;;;;;;5036654;28;20742;-76
2021/12/03 02:41:24;;;;;;;6.85;6.15;;;3.00;96.10;;;;;;5029128;28;20057;-78
2021/12/03 02:43:51;;;;;;;7.15;6.45;;;3.00;96.10;;;;;;5031840;28;20089;-77
2021/12/03 02:46:17;;;;;;;7.93;6.78;;;2.90;96.10;;;;;;5034449;28;20056;-77
2021/12/03 02:48:44;;;;;;;7.07;6.38;;;2.90;96.10;;;;;;5038183;28;20053;-77
2021/12/03 02:51:11;;;;;;;8.30;6.97;;;2.90;96.10;;;;;;5036488;28;20053;-77
2021/12/03 02:53:39;;;;;;;7.60;6.80;;;2.90;96.10;;;;;;5040487;28;20056;-77
2021/12/03 02:56:08;;;;;;;8.52;7.38;;;2.90;96.10;;;;;;5039026;28;20048;-77
2021/12/03 02:58:35;;;;;;;8.30;6.70;;;2.90;96.10;;;;;;5032747;28;20135;-78
2021/12/03 03:01:05;;;;;;;9.98;7.85;;;2.90;96.00;;;;;;5032678;28;21196;-76
2021/12/03 03:03:32;;;;;;;10.65;7.70;;;2.80;96.00;;;;;;5035774;28;20056;-77
2021/12/03 03:06:01;;;;;;;8.73;7.75;;;2.80;96.00;;;;;;5036031;28;20074;-77
2021/12/03 03:08:28;;;;;;;10.52;8.57;;;2.80;95.90;;;;;;5038886;28;20060;-77
2021/12/03 03:10:56;;;;;;;10.48;8.00;;;2.70;95.90;;;;;;5035146;28;20049;-77
2021/12/03 03:13:25;;;;;;;10.73;8.07;;;2.70;96.00;;;;;;5033655;28;20052;-77
2021/12/03 03:15:53;;;;;;;8.40;7.60;;;2.70;96.00;;;;;;5034960;28;20060;-77
2021/12/03 03:18:23;;;;;;;9.48;8.13;;;2.70;96.00;;;;;;5035259;28;20053;-77
2021/12/03 03:20:52;;;;;;;10.75;8.70;;;2.70;96.00;;;;;;5034681;28;20345;-77
2021/12/03 03:23:19;;;;;;;9.00;7.82;;;2.70;95.90;;;;;;5037179;28;20053;-77
2021/12/03 03:25:47;;;;;;;9.48;8.35;;;2.60;95.90;;;;;;5036214;28;20064;-77
2021/12/03 03:28:15;;;;;;;10.10;8.77;;;2.60;95.90;;;;;;5033285;28;20111;-77
2021/12/03 03:30:46;;;;;;;10.02;8.98;;;2.60;95.90;;;;;;5033804;28;21988;-77
2021/12/03 03:33:14;;;;;;;10.38;8.93;;;2.60;95.90;;;;;;5034913;28;20133;-77
2021/12/03 03:35:41;;;;;;;9.98;8.95;;;2.60;96.00;;;;;;5036356;28;20654;-77
2021/12/03 03:38:08;;;;;;;11.45;9.63;;;2.60;96.00;;;;;;5037278;28;20053;-77
2021/12/03 03:40:35;;;;;;;11.63;9.23;;;2.60;96.00;;;;;;5035857;28;20052;-77
2021/12/03 03:43:04;;;;;;;11.60;9.10;;;2.60;96.00;;;;;;5035179;28;20075;-78
2021/12/03 03:45:32;;;;;;;12.07;9.68;;;2.50;96.00;;;;;;5035681;28;20136;-78
2021/12/03 03:48:00;;;;;;;10.98;9.13;;;2.50;96.00;;;;;;5032919;28;20053;-77
2021/12/03 03:50:28;;;;;;;11.82;8.93;;;2.50;96.00;;;;;;5037904;28;20053;-77
2021/12/03 03:52:56;;;;;;;9.95;8.85;;;2.50;96.00;;;;;;5033010;28;20041;-77
2021/12/03 03:55:24;;;;;;;10.23;8.93;;;2.50;96.10;;;;;;5034274;28;20048;-77
2021/12/03 03:57:56;;;;;;;12.00;10.15;;;2.50;96.10;;;;;;5032397;28;20063;-77
2021/12/03 04:00:28;;;;;;;12.02;9.93;;;2.50;96.10;;;;;;5035117;28;20090;-77
2021/12/03 04:02:56;;;;;;;12.65;9.98;;;2.40;96.00;;;;;;5034091;28;20057;-78
2021/12/03 04:05:25;;;;;;;10.93;9.77;;;2.40;96.00;;;;;;5039843;28;20052;-77
2021/12/03 04:07:51;;;;;;;12.13;10.25;;;2.40;96.00;;;;;;5038883;28;20056;-77
2021/12/03 04:10:18;;;;;;;12.93;10.43;;;2.40;96.00;;;;;;5033199;28;20057;-77
2021/12/03 04:12:45;;;;;;;13.38;10.38;;;2.40;96.00;;;;;;5035025;28;20045;-77
2021/12/03 04:15:13;;;;;;;11.50;9.73;;;2.40;96.00;;;;;;5033524;28;20064;-77
2021/12/03 04:17:40;;;;;;;13.27;10.43;;;2.30;96.30;;;;;;5036670;28;20053;-77
2021/12/03 04:20:09;;;;;;;13.23;10.23;;;2.30;96.00;;;;;;5031935;28;20056;-77
2021/12/03 04:22:38;;;;;;;12.68;10.68;;;2.30;96.00;;;;;;5037494;28;20045;-77
2021/12/03 04:25:07;;;;;;;13.32;11.07;;;2.30;96.10;;;;;;5034771;28;20533;-77
2021/12/03 04:27:34;;;;;;;13.40;10.85;;;2.30;96.10;;;;;;5032980;28;20064;-77
2021/12/03 04:30:01;;;;;;;14.23;10.68;;;2.30;96.10;;;;;;5034818;28;20077;-77
2021/12/03 04:32:28;;;;;;;14.88;10.93;;;2.30;96.10;;;;;;5036844;28;20052;-77
2021/12/03 04:34:55;;;;;;;13.25;10.43;;;2.20;96.10;;;;;;5038157;28;20433;-77
2021/12/03 04:37:22;;;;;;;13.07;10.45;;;2.20;96.10;;;;;;5033175;28;20052;-76
2021/12/03 04:39:51;;;;;;;13.88;10.93;;;2.20;96.40;;;;;;5037718;28;20505;-78
2021/12/03 04:42:18;;;;;;;13.43;11.07;;;2.20;96.10;;;;;;5035709;28;20070;-77
2021/12/03 04:44:44;;;;;;;12.82;10.68;;;2.20;96.10;;;;;;5038112;28;20045;-77
2021/12/03 04:47:11;;;;;;;15.35;11.32;;;2.20;96.10;;;;;;5033987;28;20053;-76
2021/12/03 04:49:38;;;;;;;14.70;10.95;;;2.20;96.20;;;;;;5034103;28;20060;-77
2021/12/03 04:52:06;;;;;;;14.27;11.15;;;2.10;96.20;;;;;;5034755;28;20052;-77
2021/12/03 04:54:33;;;;;;;14.02;10.77;;;2.10;96.20;;;;;;5036374;28;20045;-77
2021/12/03 04:57:01;;;;;;;13.48;10.88;;;2.10;96.20;;;;;;5033561;28;20056;-77
2021/12/03 04:59:28;;;;;;;15.55;11.65;;;2.10;96.20;;;;;;5033126;28;20583;-77
2021/12/03 05:01:57;;;;;;;15.25;11.57;;;2.10;96.20;;;;;;5033724;28;20053;-77
2021/12/03 05:04:24;;;;;;;15.45;11.02;;;2.10;96.20;;;;;;5035289;28;20203;-77
2021/12/03 05:06:55;;;;;;;14.68;11.38;;;2.00;96.10;;;;;;5035124;28;20065;-77
2021/12/03 05:09:23;;;;;;;14.90;11.63;;;2.10;96.20;;;;;;5033782;28;20052;-77
2021/12/03 05:11:50;;;;;;;15.20;11.80;;;2.00;96.10;;;;;;5033514;28;20052;-77
2021/12/03 05:14:18;;;;;;;14.77;12.20;;;2.00;96.10;;;;;;5037656;28;20053;-78
2021/12/03 05:16:48;;;;;;;14.65;11.40;;;2.00;96.10;;;;;;5038255;28;20055;-77
2021/12/03 05:19:15;;;;;;;18.08;12.35;;;2.00;96.10;;;;;;5040929;28;20102;-78
2021/12/03 05:21:41;;;;;;;15.60;12.10;;;2.00;96.10;;;;;;5042305;28;20056;-77
2021/12/03 05:24:08;;;;;;;16.58;12.02;;;2.00;96.10;;;;;;5038413;28;20425;-76
2021/12/03 05:26:35;;;;;;;15.98;11.75;;;1.90;96.10;;;;;;5038768;28;20463;-77
2021/12/03 05:29:02;;;;;;;13.63;10.98;;;1.90;96.10;;;;;;5033138;28;20619;-77
2021/12/03 05:31:30;;;;;;;14.68;11.30;;;1.90;96.00;;;;;;5033648;28;20118;-77
2021/12/03 05:33:57;;;;;;;14.75;11.32;;;1.90;96.00;;;;;;5035154;28;20060;-76
2021/12/03 05:36:24;;;;;;;16.00;11.35;;;1.90;96.00;;;;;;5034128;28;20087;-76
2021/12/03 05:38:51;;;;;;;15.27;11.68;;;1.90;96.00;;;;;;5035051;28;20053;-76
2021/12/03 05:41:18;;;;;;;14.38;11.63;;;1.90;96.10;;;;;;5032458;28;20064;-77
2021/12/03 05:43:45;;;;;;;14.85;12.15;;;1.80;96.00;;;;;;5032766;28;20041;-77
2021/12/03 05:46:12;;;;;;;15.30;11.68;;;1.80;96.00;;;;;;5034722;28;20057;-77
2021/12/03 05:48:40;;;;;;;16.13;11.52;;;1.80;96.00;;;;;;5033044;28;20497;-77
2021/12/03 05:51:06;;;;;;;14.75;11.52;;;1.80;96.00;;;;;;5033063;28;20052;-77
2021/12/03 05:53:34;;;;;;;17.60;12.82;;;1.80;96.00;;;;;;5034006;28;20075;-78
2021/12/03 05:56:00;;;;;;;16.88;13.00;;;1.80;96.10;;;;;;5035405;28;20188;-78
2021/12/03 05:58:27;;;;;;;16.58;12.45;;;1.80;96.10;;;;;;5031051;28;20060;-77
2021/12/03 06:00:54;;;;;;;16.05;12.20;;;1.80;96.10;;;;;;5031601;28;20115;-78
2021/12/03 06:03:21;;;;;;;16.60;12.45;;;1.80;96.10;;;;;;5034434;28;20097;-77
2021/12/03 06:05:49;;;;;;;15.63;11.85;;;1.70;96.10;;;;;;5031967;28;20697;-78
2021/12/03 06:08:16;;;;;;;17.02;12.63;;;1.70;96.00;;;;;;5034157;28;20140;-77
2021/12/03 06:10:44;;;;;;;15.50;11.93;;;1.70;96.00;;;;;;5032141;28;20052;-78
2021/12/03 06:13:11;;;;;;;14.98;12.27;;;1.70;96.00;;;;;;5032951;28;20063;-78
2021/12/03 06:15:38;;;;;;;15.00;11.80;;;1.70;96.00;;;;;;5032155;28;20048;-78
2021/12/03 06:18:05;;;;;;;16.42;12.38;;;1.70;96.00;;;;;;5034772;28;20049;-78
2021/12/03 06:20:31;;;;;;;16.63;12.32;;;1.70;96.00;;;;;;5038575;28;20566;-78
2021/12/03 06:23:00;;;;;;;14.98;11.52;;;1.60;95.90;;;;;;5033033;28;20049;-78
2021/12/03 06:25:27;;;;;;;15.50;12.32;;;1.70;95.90;;;;;;5040750;28;20053;-78
2021/12/03 06:27:57;;;;;;;17.40;13.20;;;1.60;95.90;;;;;;5040756;28;20052;-78
2021/12/03 06:30:25;;;;;;;16.15;13.10;;;1.60;95.90;;;;;;5043906;28;20053;-78
2021/12/03 06:32:52;;;;;;;16.08;12.25;;;1.60;95.90;;;;;;5037229;28;20049;-77
2021/12/03 06:35:19;;;;;;;15.52;12.50;;;1.60;96.00;;;;;;5040612;28;20056;-78
2021/12/03 06:37:47;;;;;;;14.50;12.18;;;1.60;96.00;;;;;;5042554;28;20072;-78
2021/12/03 06:40:17;;;;;;;14.10;11.60;;;1.60;96.00;;;;;;5037892;28;20076;-77
2021/12/03 06:42:44;;;;;;;14.88;11.82;;;1.60;96.00;;;;;;5037917;28;20048;-78
2021/12/03 06:45:12;;;;;;;15.63;12.18;;;1.60;96.00;;;;;;5041782;28;20052;-77
2021/12/03 06:47:39;;;;;;;14.80;11.90;;;1.60;96.00;;;;;;5036017;28;20049;-78
2021/12/03 06:50:09;;;;;;;14.35;11.85;;;1.60;96.00;;;;;;5042507;28;20377;-78
2021/12/03 06:52:39;;;;;;;14.15;11.55;;;1.50;96.00;;;;;;5037324;28;20049;-78
2021/12/03 06:55:09;;;;;;;17.17;11.98;;;1.60;96.10;;;;;;5040259;28;20057;-78
2021/12/03 06:57:38;;;;;;;13.63;11.82;;;1.50;96.00;;;;;;5037328;28;20049;-78
2021/12/03 07:00:05;;;;;;;13.52;10.70;;;1.50;96.00;;;;;;5041257;28;20045;-78
2021/12/03 07:02:32;;;;;;;14.02;10.95;;;1.50;96.00;;;;;;5040819;28;20053;-78
2021/12/03 07:04:59;;;;;;;13.65;11.27;;;1.50;96.00;;;;;;5043480;28;20071;-77
2021/12/03 07:07:25;;;;;;;12.98;10.98;;;1.50;96.00;;;;;;5041510;28;20060;-78
2021/12/03 07:09:52;;;;;;;14.63;11.40;;;1.50;96.00;;;;;;5038056;28;20056;-77
2021/12/03 07:12:19;;;;;;;14.90;11.70;;;1.50;96.00;;;;;;5038661;28;20535;-77
2021/12/03 07:14:47;;;;;;;12.98;10.82;;;1.50;96.10;;;;;;5033995;28;20041;-77
2021/12/03 07:17:14;;;;;;;13.02;11.13;;;1.50;96.10;;;;;;5040203;28;20065;-78
2021/12/03 07:19:41;;;;;;;13.55;11.07;;;1.50;96.10;;;;;;5041954;28;20053;-77
2021/12/03 07:22:07;;;;;;;13.45;11.02;;;1.40;96.10;;;;;;5042605;28;20045;-78
2021/12/03 07:24:34;;;;;;;15.15;10.98;;;1.40;96.10;;;;;;5042431;28;20053;-78
2021/12/03 07:27:01;;;;;;;13.63;10.68;;;1.40;96.10;;;;;;5046738;28;20057;-78
2021/12/03 07:29:31;;;;;;;13.45;10.90;;;1.40;96.10;;;;;;5041048;28;20056;-78
2021/12/03 07:31:59;;;;;;;13.68;10.10;;;1.40;96.10;;;;;;5036811;28;20700;-77
2021/12/03 07:34:26;;;;;;;13.43;11.07;;;1.40;96.10;;;;;;5036470;28;20033;-78
2021/12/03 07:36:52;;;;;;;12.40;10.20;;;1.40;96.10;;;;;;5041744;28;20068;-78
2021/12/03 07:39:19;;;;;;;11.82;10.23;;;1.40;96.10;;;;;;5038867;28;20057;-77
2021/12/03 07:41:46;;;;;;;13.50;10.00;;;1.40;96.10;;;;;;5033784;28;20048;-77
2021/12/03 07:44:13;;;;;;;12.50;10.13;;;1.40;96.10;;;;;;5032820;28;20041;-78
2021/12/03 07:46:39;;;;;;;12.80;10.13;;;1.40;96.20;;;;;;5039232;28;20056;-77
2021/12/03 07:49:07;;;;;;;11.43;9.55;;;1.40;96.20;;;;;;5038358;28;20049;-78
2021/12/03 07:51:34;;;;;;;11.80;9.63;;;1.40;96.20;;;;;;5041852;28;20049;-77
2021/12/03 07:54:01;;;;;;;12.00;10.07;;;1.40;96.20;;;;;;5040049;28;20802;-77
2021/12/03 07:56:28;;;;;;;12.55;8.95;;;1.40;96.20;;;;;;5037436;28;20041;-77
2021/12/03 07:58:54;;;;;;;11.13;9.00;;;1.40;96.20;;;;;;5036597;28;20056;-78
2021/12/03 08:01:21;;;;;;;13.27;9.05;;;1.40;96.20;;;;;;5036177;28;20444;-77
2021/12/03 08:03:48;;;;;;;10.75;8.88;;;1.40;96.20;;;;;;5039892;28;20056;-78
2021/12/03 08:06:17;;;;;;;10.77;8.65;;;1.40;96.20;;;;;;5035229;28;20509;-77
2021/12/03 08:08:43;;;;;;;10.13;8.73;;;1.40;96.20;;;;;;5039793;28;20060;-78
2021/12/03 08:11:10;;;;;;;11.23;8.52;;;1.30;96.10;;;;;;5033603;28;20406;-78
2021/12/03 08:13:37;;;;;;;8.82;7.93;;;1.40;96.10;;;;;;5036537;28;20053;-77
2021/12/03 08:16:05;;;;;;;9.30;8.07;;;1.40;96.10;;;;;;5037328;28;20926;-77
2021/12/03 08:18:31;;;;;;;9.32;7.97;;;1.40;96.10;;;;;;5034460;28;20045;-77
2021/12/03 08:20:58;;;;;;;8.98;7.35;;;1.40;96.20;;;;;;5029755;28;20433;-77
2021/12/03 08:23:27;;;;;;;9.40;8.07;;;1.40;96.20;;;;;;5037846;28;20049;-78
2021/12/03 08:25:54;;;;;;;9.32;7.75;;;1.40;96.20;;;;;;5035831;28;20055;-78
2021/12/03 08:28:20;;;;;;;9.15;7.60;;;1.40;96.20;;;;;;5037070;28;20706;-78
2021/12/03 08:30:47;;;;;;;9.95;8.10;;;1.40;96.20;;;;;;5037301;28;20052;-77
2021/12/03 08:33:14;;;;;;;9.48;7.75;;;1.40;96.20;;;;;;5035511;28;20060;-77
2021/12/03 08:35:41;;;;;;;8.38;7.53;;;1.40;96.20;;;;;;5039748;28;20508;-78
2021/12/03 08:38:08;;;;;;;9.15;7.53;;;1.40;96.20;;;;;;5035379;28;20135;-78
2021/12/03 08:40:36;;;;;;;10.57;7.60;;;1.50;96.20;;;;;;5040261;28;20053;-79
2021/12/03 08:43:03;;;;;;;8.32;7.50;;;1.40;96.20;;;;;;5044291;28;20460;-79
2021/12/03 08:45:30;;;;;;;9.48;7.32;;;1.40;96.10;;;;;;5037249;28;20053;-78
2021/12/03 08:47:58;;;;;;;10.55;7.80;;;1.50;96.20;;;;;;5038787;28;20056;-77
2021/12/03 08:50:29;;;;;;;10.43;7.60;;;1.50;96.20;;;;;;5040003;28;20056;-78
2021/12/03 08:53:20;;;;;;;7.25;6.55;;;1.50;96.20;;;;;;5043599;28;20674;-77
2021/12/03 08:55:49;;;;;;;8.27;6.68;;;1.50;96.20;;;;;;5040871;28;20143;-78
2021/12/03 08:58:16;;;;;;;8.27;7.18;;;1.50;96.20;;;;;;5042660;28;20048;-78
2021/12/03 09:00:43;;;;;;;10.20;7.25;;;1.50;96.20;;;;;;5039779;28;20127;-78
2021/12/03 09:03:10;;;;;;;8.48;7.03;;;1.60;96.20;;;;;;5043241;28;20053;-78
2021/12/03 09:05:37;;;;;;;7.78;6.53;;;1.50;96.50;;;;;;5041147;28;20061;-78
2021/12/03 09:08:05;;;;;;;7.82;6.95;;;1.50;96.20;;;;;;5042207;28;20056;-78
2021/12/03 09:10:32;;;;;;;8.50;6.50;;;1.60;96.20;;;;;;5036718;28;20084;-77
2021/12/03 09:13:00;;;;;;;7.47;6.60;;;1.60;96.10;;;;;;5043640;28;20114;-78
2021/12/03 09:15:31;;;;;;;9.55;6.70;;;1.60;96.10;;;;;;5032038;28;20123;-78
2021/12/03 09:18:10;;;;;;;8.60;6.55;;;1.60;96.00;;;;;;5041294;28;20235;-77
2021/12/03 09:20:49;;;;;;;6.80;6.10;;;1.60;96.00;;;;;;5037273;28;20049;-77
2021/12/03 09:23:20;;;;;;;7.43;6.55;;;1.60;96.00;;;;;;5045262;28;20049;-77
2021/12/03 09:25:51;;;;;;;8.23;6.45;;;1.60;96.00;;;;;;5042687;28;20109;-77
2021/12/03 09:28:20;;;;;;;7.13;6.40;;;1.60;96.00;;;;;;5043752;28;20136;-77
2021/12/03 09:30:48;;;;;;;7.47;6.18;;;1.60;96.00;;;;;;5042191;28;20071;-77
2021/12/03 09:33:18;;;;;;;7.90;6.35;;;1.60;96.00;;;;;;5044245;28;20056;-77
2021/12/03 09:35:47;;;;;;;7.95;6.40;;;1.70;96.00;;;;;;5043867;28;20041;-78
2021/12/03 09:38:14;;;;;;;7.55;6.60;;;1.70;96.00;;;;;;5039637;28;20420;-77
2021/12/03 09:40:42;;;;;;;7.07;6.13;;;1.70;96.00;;;;;;5037178;28;20056;-77
2021/12/03 09:43:09;;;;;;;6.78;5.85;;;1.70;96.00;;;;;;5035565;28;20063;-77
2021/12/03 09:45:39;;;;;;;6.95;6.18;;;1.70;96.00;;;;;;5040213;28;20055;-77
2021/12/03 09:48:15;;;;;;;7.03;6.32;;;1.80;96.00;;;;;;5035646;28;20084;-77
2021/12/03 09:50:42;;;;;;;8.77;6.50;;;1.80;96.00;;;;;;5037512;28;20088;-77
2021/12/03 09:53:24;;;;;;;8.50;6.53;;;1.80;96.00;;;;;;5040512;28;20155;-77
2021/12/03 09:55:51;;;;;;;7.60;6.30;;;1.80;96.00;;;;;;5036739;28;20049;-77
2021/12/03 09:58:30;;;;;;;7.22;6.18;;;1.80;96.00;;;;;;5042278;28;20053;-77
2021/12/03 10:01:03;;;;;;;7.57;6.78;;;1.80;96.00;;;;;;5042575;28;20056;-77
2021/12/03 10:17:44;;;;;;;9.18;6.28;;;1.90;95.80;;;;;;5038674;28;20135;-77
2021/12/03 10:20:21;;;;;;;6.97;6.28;;;1.90;95.80;;;;;;5043099;28;20056;-77
2021/12/03 10:29:02;;;;;;;7.20;5.97;;;2.00;95.80;;;;;;5043618;28;20455;-77
2021/12/03 10:39:54;;;;;;;7.93;7.13;;;2.10;95.80;;;;;;5035963;28;20093;-77
2021/12/03 10:42:37;;;;;;;7.95;7.13;;;2.10;95.80;;;;;;5036001;28;20053;-75
2021/12/03 10:45:17;;;;;;;8.05;7.07;;;2.10;95.70;;;;;;5039722;28;20041;-76
2021/12/03 10:47:56;;;;;;;8.32;6.70;;;2.20;95.70;;;;;;5038820;28;20057;-75
2021/12/03 10:50:39;;;;;;;9.82;7.07;;;2.30;95.70;;;;;;5040923;28;20052;-76
2021/12/03 10:53:34;;;;;;;10.40;7.65;;;2.30;95.60;;;;;;5038858;28;20166;-76
2021/12/03 10:56:27;;;;;;;7.53;6.82;;;2.30;95.60;;;;;;5040222;28;20420;-76
2021/12/03 10:59:15;;;;;;;7.88;6.63;;;2.40;95.50;;;;;;5039515;28;20060;-76
2021/12/03 11:05:15;;;;;;;8.10;7.30;;;2.40;95.40;;;;;;4996727;28;20053;-76
2021/12/03 11:08:22;;;;;;;8.15;7.28;;;2.50;95.30;;;;;;4988193;28;20100;-77
2021/12/03 11:19:54;;;;;;;8.43;6.55;;;2.50;95.20;;;;;;4979399;28;20859;-77
2021/12/03 11:36:41;;;;;;;7.30;6.40;;;2.60;94.80;;;;;;5034041;28;20365;-75
2021/12/03 12:40:06;;;;;;;7.97;6.32;;;3.00;93.50;;;;;;5035576;28;20126;-75
2021/12/03 13:08:59;;;;;;;7.97;5.70;;;3.20;93.50;;;;;;5034519;28;20863;-77
2021/12/03 13:57:46;;;;;;;6.53;5.82;;;3.30;93.50;;;;;;5046274;28;20078;-77
2021/12/03 14:00:28;;;;;;;7.40;6.05;;;3.30;93.40;;;;;;5031948;28;20148;-76
2021/12/03 14:42:21;;;;;;;7.57;5.68;;;3.30;93.40;;;;;;5016824;28;20152;-76
2021/12/03 14:45:02;;;;;;;5.78;5.18;;;3.30;93.40;;;;;;5034603;28;20076;-77
2021/12/03 14:53:32;;;;;;;7.00;6.30;;;3.30;93.40;;;;;;5030075;28;20056;-75
2021/12/03 14:56:03;;;;;;;7.63;6.38;;;3.30;93.40;;;;;;5036567;28;21154;-77
2021/12/03 14:58:36;;;;;;;7.93;6.85;;;3.30;93.50;;;;;;5034502;28;20452;-75
2021/12/03 15:01:12;;;;;;;7.93;7.13;;;3.30;93.50;;;;;;5035027;28;20059;-76
2021/12/03 15:03:55;;;;;;;8.25;6.88;;;3.30;93.50;;;;;;5033911;28;20057;-77
2021/12/03 15:06:31;;;;;;;6.93;6.07;;;3.30;93.60;;;;;;5030643;28;20429;-76
2021/12/03 15:09:00;;;;;;;8.70;6.80;;;3.30;93.60;;;;;;5073713;22;20064;-74
2021/12/03 15:11:55;;;;;;;6.95;6.25;;;3.30;93.60;;;;;;5062939;28;20052;-74
2021/12/03 15:14:57;;;;;;;7.40;6.40;;;3.30;93.60;;;;;;5044512;28;20049;-72
2021/12/03 15:20:30;;;;;;;6.90;5.90;;;3.30;93.70;;;;;;5042244;28;20139;-72
2021/12/03 15:25:49;;;;;;;6.28;5.68;;;3.30;93.60;;;;;;5041231;28;20503;-72
2021/12/03 15:31:22;;;;;;;6.15;5.55;;;3.20;93.50;;;;;;5035796;28;20084;-73
2021/12/03 15:33:53;;;;;;;5.65;4.80;;;3.20;93.50;;;;;;5042490;28;20087;-72
2021/12/03 15:36:28;;;;;;;5.90;5.00;;;3.20;93.40;;;;;;5039760;28;20045;-72
2021/12/03 15:39:25;;;;;;;6.43;5.28;;;3.20;93.40;;;;;;5038666;28;20748;-72
2021/12/03 15:54:08;;;;;;;6.63;4.13;;;3.20;93.40;;;;;;5041461;28;20182;-73
2021/12/03 15:56:24;;;;;;;5.25;4.35;;;3.20;93.30;;;;;;5036824;28;20051;-72
2021/12/03 16:04:30;;;;;;;5.88;4.30;;;3.10;93.30;;;;;;5039347;28;20423;-73
2021/12/03 16:07:12;;;;;;;5.25;4.75;;;3.10;93.30;;;;;;5039282;28;20041;-73
2021/12/03 16:12:34;;;;;;;5.43;4.10;;;3.10;93.40;;;;;;5032667;28;20051;-73
2021/12/03 16:15:17;;;;;;;4.60;4.20;;;3.10;93.40;;;;;;5036147;28;20492;-72
2021/12/03 16:18:02;;;;;;;4.75;4.03;;;3.10;93.40;;;;;;5038906;28;20057;-72
2021/12/03 16:20:50;;;;;;;4.55;4.13;;;3.10;93.40;;;;;;5047816;28;20052;-72
2021/12/03 16:48:27;;;;;;;4.90;3.72;;;3.10;93.20;;;;;;5040340;28;20110;-72
2021/12/03 16:51:12;;;;;;;4.13;3.72;;;3.10;93.30;;;;;;5043073;28;20795;-72
2021/12/03 16:53:39;;;;;;;4.32;3.83;;;3.00;93.10;;;;;;5037582;28;20055;-73
2021/12/03 16:56:09;;;;;;;5.45;4.13;;;3.10;93.10;;;;;;5041682;28;20045;-72
2021/12/03 16:58:37;;;;;;;5.20;4.05;;;3.10;93.10;;;;;;5042842;28;20053;-72
2021/12/03 17:01:08;;;;;;;5.00;3.75;;;3.10;93.20;;;;;;5035759;28;20063;-72
2021/12/03 17:03:43;;;;;;;4.68;3.80;;;3.10;93.20;;;;;;5040282;28;20761;-72
2021/12/03 17:09:18;;;;;;;4.07;3.65;;;3.10;93.20;;;;;;4983393;28;20147;-72
2021/12/03 17:45:19;;;;;;;5.43;3.80;;;3.10;93.90;;;;;;5036621;28;20157;-72
2021/12/03 17:48:15;;;;;;;3.83;3.45;;;3.10;93.60;;;;;;5040262;28;20049;-72
2021/12/03 17:51:05;;;;;;;4.00;3.60;;;3.10;93.70;;;;;;5044404;28;20057;-72
2021/12/03 17:56:17;;;;;;;3.78;3.30;;;3.10;93.90;;;;;;5035373;28;20458;-71
2021/12/03 17:58:45;;;;;;;4.10;3.65;;;3.10;93.90;;;;;;5040717;28;20057;-72
2021/12/03 18:01:17;;;;;;;3.50;3.17;;;3.10;94.00;;;;;;5032928;28;20064;-72
2021/12/03 18:03:49;;;;;;;3.67;3.38;;;3.10;94.00;;;;;;5037959;28;20053;-72
2021/12/03 18:06:45;;;;;;;4.15;3.53;;;3.10;94.00;;;;;;5040091;28;20056;-72
2021/12/03 18:45:19;;;;;;;3.83;3.28;;;3.00;94.30;;;;;;5040654;28;20105;-71
2021/12/03 18:50:57;;;;;;;4.68;3.65;;;3.00;94.40;;;;;;5046101;28;20082;-73
2021/12/03 18:53:41;;;;;;;4.38;3.55;;;3.00;94.40;;;;;;5033145;28;20114;-72
2021/12/03 18:56:16;;;;;;;3.42;3.13;;;3.00;94.40;;;;;;5036777;28;20140;-73
2021/12/03 18:58:43;;;;;;;4.10;3.70;;;3.00;94.40;;;;;;5037707;28;20057;-73
2021/12/03 19:01:11;;;;;;;4.32;3.92;;;3.00;94.40;;;;;;5039975;28;20045;-73
2021/12/03 19:03:50;;;;;;;4.22;3.83;;;3.00;94.40;;;;;;5041593;28;20432;-73
2021/12/03 19:06:21;;;;;;;4.50;4.10;;;3.00;94.40;;;;;;5043305;28;20048;-73
2021/12/03 19:08:51;;;;;;;4.15;3.70;;;3.00;94.50;;;;;;5044397;28;20136;-73
2021/12/03 19:11:23;;;;;;;4.07;3.60;;;3.00;94.50;;;;;;5041914;28;20049;-73